Flight Track Log - Related Links

Times and Time Zones

All times are in EDT time to prevent confusion due to time zone crossing. See the DAL1349 flight status page for this flight to view local times or setup timezone preferences in your user account.

Time Position Orientation Groundspeed Altitude Reporting Facility
EDT Latitude Longitude Course Direction KTS MPH feet Rate Location/Type
Wed 07:22:55 AM 38.3292 -81.6047 137° Southeast 178 205 2,900  Level Indianapolis Center
Wed 07:23:57 AM 38.2658 -81.5506 146° Southeast 271 312 5,600 3,415 Climbing Indianapolis Center
Wed 07:24:00 AM 38.1980 -81.5875 137° Southeast  Level FlightAware Approximate
Wed 07:24:58 AM 38.1819 -81.4769 145° Southeast 304 350 9,900  Level Indianapolis Center
Wed 07:25:00 AM 38.1090 -81.4923 142° Southeast  Level FlightAware Approximate
Wed 07:25:59 AM 38.0958 -81.4006 145° Southeast 378 435 10,000  Level Indianapolis Center
Wed 07:26:00 AM 38.0185 -81.3993 137° Southeast  Level FlightAware Approximate
Wed 07:27:00 AM 37.9329 -81.2993 137° Southeast  Level FlightAware Approximate
Wed 07:27:00 AM 38.0061 -81.3219 145° Southeast 392 451 10,400  Level Indianapolis Center
Wed 07:28:00 AM 37.8472 -81.1994 137° Southeast  Level FlightAware Approximate
Wed 07:28:01 AM 37.9139 -81.2406 145° Southeast 404 465 13,100  Level Indianapolis Center
Wed 07:29:02 AM 37.8067 -81.1617 150° Southeast 441 507 16,100 2,705 Climbing Indianapolis Center
Wed 07:30:03 AM 37.7028 -81.2028 197° South 429 494 18,600 2,262 Climbing Indianapolis Center
Wed 07:31:04 AM 37.6111 -81.2939 218° Southwest 433 498 20,700 2,244 Climbing Indianapolis Center
Wed 07:32:06 AM 37.4967 -81.4064 218° Southwest 446 513 23,200 2,146 Climbing Indianapolis Center
Wed 07:33:07 AM 37.3936 -81.5061 218° Southwest 456 525 25,100 1,770 Climbing Indianapolis Center
Wed 07:34:08 AM 37.2919 -81.6078 219° Southwest 465 535 26,800 1,672 Climbing Indianapolis Center
Wed 07:35:09 AM 37.1897 -81.7081 218° Southwest 466 536 28,500 1,082 Climbing Indianapolis Center
Wed 07:36:10 AM 37.0881 -81.8069 218° Southwest 462 532 29,000 829 Climbing Indianapolis Center
Wed 07:37:12 AM 36.9875 -81.9053 218° Southwest 459 528 30,200 1,463 Climbing Indianapolis Center
Wed 07:38:13 AM 36.8878 -82.0019 218° Southwest 453 521 32,000 1,536 Climbing Indianapolis Center
Wed 07:39:17 AM 36.7853 -82.1025 218° Southwest 455 524 33,400 1,500 Climbing Atlanta Center
Wed 07:40:17 AM 36.6847 -82.1983 217° Southwest 460 529 35,100 1,600 Climbing Atlanta Center
Wed 07:41:17 AM 36.5881 -82.2908 218° Southwest 454 522 36,600 1,400 Climbing Atlanta Center
Wed 07:42:17 AM 36.4914 -82.3833 218° Southwest 454 522 37,900 700 Climbing Atlanta Center
Wed 07:43:17 AM 36.3967 -82.4756 218° Southwest 449 517 38,000 50 Climbing Atlanta Center
Wed 07:44:17 AM 36.3019 -82.5678 218° Southwest 444 511 38,000  Level Atlanta Center
Wed 07:45:17 AM 36.2047 -82.6569 217° Southwest 444 511 38,000 -300 Level Atlanta Center
Wed 07:46:17 AM 36.1036 -82.7408 214° Southwest 444 511 37,400 -800 Descending Atlanta Center
Wed 07:47:17 AM 35.9831 -82.7917 199° South 448 516 36,400 -1,000 Descending Atlanta Center
Wed 07:48:17 AM 35.8606 -82.8422 198° South 467 537 35,400 -700 Descending Atlanta Center
Wed 07:49:17 AM 35.7400 -82.8900 198° South 467 537 35,000 -200 Descending Atlanta Center
Wed 07:50:17 AM 35.6175 -82.9403 198° South 460 529 35,000 -250 Level Atlanta Center
Wed 07:51:17 AM 35.5094 -83.0158 210° Southwest 455 524 34,500 -700 Descending Atlanta Center
Wed 07:52:17 AM 35.4017 -83.0933 210° Southwest 455 524 33,600 -950 Descending Atlanta Center
Wed 07:53:17 AM 35.2958 -83.1686 210° Southwest 449 517 32,600 -1,000 Descending Atlanta Center
Wed 07:54:17 AM 35.1817 -83.2561 212° Southwest 449 517 31,600 -1,000 Descending Atlanta Center
Wed 07:55:17 AM 35.0778 -83.3306 210° Southwest 449 517 30,600 -1,000 Descending Atlanta Center
Wed 07:56:17 AM 34.9656 -83.4103 210° Southwest 454 522 29,600 -1,000 Descending Atlanta Center
Wed 07:57:17 AM 34.8636 -83.4844 211° Southwest 467 537 28,600 -950 Descending Atlanta Center
Wed 07:58:17 AM 34.7533 -83.5611 210° Southwest 467 537 27,700 -950 Descending Atlanta Center
Wed 07:59:17 AM 34.6450 -83.6425 212° Southwest 467 537 26,700 -1,850 Descending Atlanta Center
Wed 08:00:17 AM 34.5306 -83.7211 210° Southwest 467 537 24,000 -3,000 Descending Atlanta Center
Wed 08:01:17 AM 34.4244 -83.7969 211° Southwest 458 527 20,700 -3,150 Descending Atlanta Center
Wed 08:02:17 AM 34.3222 -83.8703 211° Southwest 447 514 17,700 -3,100 Descending Atlanta Center
Wed 08:03:17 AM 34.2242 -83.9433 212° Southwest 428 493 14,500 -2,350 Descending Atlanta Center
Wed 08:04:17 AM 34.1219 -84.0186 211° Southwest 413 475 13,000 -1,098 Descending Atlanta Center
Wed 08:04:39 AM 34.0833 -84.0500 214° Southwest 400 460 13,000  Level Atlanta TRACON
Wed 08:05:39 AM 34.0000 -84.1333 220° Southwest 389 448 13,000  Level Atlanta TRACON
Wed 08:06:39 AM 33.9167 -84.1833 206° Southwest 309 356 13,000  Level Atlanta TRACON
Wed 08:07:45 AM 33.8500 -84.2500 220° Southwest 259 298 13,000 -114 Level Atlanta TRACON
Wed 08:09:17 AM 33.7689 -84.3186 215° Southwest 272 313 12,700 -600 Descending Atlanta Center
Wed 08:09:45 AM 33.7333 -84.3500 216° Southwest 259 298 11,800 -1,432 Descending Atlanta TRACON
Wed 08:10:45 AM 33.7333 -84.4333 270° West 258 297 10,600 -1,250 Descending Atlanta TRACON
Wed 08:11:45 AM 33.7333 -84.5167 270° West 246 283 9,300 -1,200 Descending Atlanta TRACON
Wed 08:12:45 AM 33.7333 -84.5833 270° West 238 274 8,200 -1,250 Descending Atlanta TRACON
Wed 08:13:45 AM 33.7333 -84.6667 270° West 236 272 6,800 -1,100 Descending Atlanta TRACON
Wed 08:14:45 AM 33.7333 -84.7500 270° West 235 270 6,000 -450 Descending Atlanta TRACON
Wed 08:15:45 AM 33.7333 -84.8333 270° West 236 272 5,900 -500 Descending Atlanta TRACON
Wed 08:16:45 AM 33.6833 -84.8667 209° Southwest 235 270 5,000 -450 Descending Atlanta TRACON
Wed 08:17:45 AM 33.6500 -84.8167 129° Southeast 231 266 5,000  Level Atlanta TRACON
Wed 08:18:45 AM 33.6500 -84.7500 90° East 196 226 5,000  Level Atlanta TRACON

Login

Don't have an account? Register now (free) for customized features, flight alerts, and more!